METAR Data
IDs: Format: Raw Decoded Include TAF

Data at: 0000 UTC 25 Apr 2019

METAR for:KCWI (Clinton Muni, IA, US)
Text:KCWI 242356Z AUTO 15008KT 10SM CLR 15/06 A2986 RMK AO2 SLP139 T01500056 10156 20117 58015
Temperature: 15.0°C ( 59°F)
Dewpoint: 5.6°C ( 42°F) [RH = 53%]
Pressure (altimeter):29.86 inches Hg (1011.3 mb) [Sea level pressure: 1013.9 mb]
Winds:from the SSE (150 degrees) at 9 MPH (8 knots; 4.1 m/s)
Visibility:10 or more sm (16+ km)
Ceiling:at least 12,000 feet AGL
Clouds:sky clear below 12,000 feet AGL
QC Flag:automated observation with no human augmentation